This is the latest recevied weather packets stored in our database for station/object YG1CIC-13. If no packets are shown the sender has not sent any weather packets the latest 10 day(s).
| Time | Temp. | Humidity | Pressure | Rain* | Wind** | Luminosity | Snow |
|---|---|---|---|---|---|---|---|
| 1777720205 | 30° C | 89% | - | 0 mm | - | - | - |
| 1777719605 | 30.56° C | 87% | - | 0 mm | - | - | - |
| 1777719004 | 30.56° C | 86% | - | 0 mm | - | - | - |
| 1777718403 | 30.56° C | 85% | - | 0 mm | - | - | - |
| 1777717803 | 30.56° C | 86% | - | 0 mm | - | - | - |
| 1777717202 | 31.67° C | 80% | - | 0 mm | - | - | - |
| 1777716602 | 31.11° C | 85% | - | 0 mm | - | - | - |
| 1777716001 | 31.11° C | 84% | - | 0 mm | - | - | - |
| 1777715400 | 31.67° C | 77% | - | 0 mm | - | - | - |
| 1777714807 | 32.22° C | 77% | - | 0 mm | - | - | - |
| 1777714199 | 32.22° C | 79% | - | 0 mm | - | - | - |
| 1777713599 | 32.22° C | 77% | - | 0 mm | - | - | - |
| 1777712998 | 32.22° C | 78% | - | 0 mm | - | - | - |
| 1777712397 | 31.67° C | 78% | - | 0 mm | - | - | - |
| 1777711797 | 32.78° C | 75% | - | 0 mm | - | - | - |
| 1777711196 | 32.78° C | 74% | - | 0 mm | - | - | - |
| 1777710596 | 32.78° C | 72% | - | 0 mm | - | - | - |
| 1777709995 | 32.78° C | 71% | - | 0 mm | - | - | - |
| 1777709394 | 32.22° C | 73% | - | 0 mm | - | - | - |
| 1777708794 | 33.33° C | 69% | - | 0 mm | - | - | - |
| 1777708193 | 33.89° C | 68% | - | 0 mm | - | - | - |
| 1777707600 | 33.89° C | 67% | - | 0 mm | - | - | - |
| 1777706992 | 34.44° C | 66% | - | 0 mm | - | - | - |
| 1777705791 | 34.44° C | 64% | - | 0 mm | - | - | - |
| 1777705191 | 35.56° C | 62% | - | 0 mm | - | - | - |
* Rain latest hour (hover to see other rain measurements)
** Current wind speed in m/s (hover to see current wind gust speed)